ADDS TAF Board (Experimental) INFO Settings

IDs: Format: Expanded Condensed

KSTL - St Louis/Lambert Int, MO, US

Issued at 0520 UTC 21 Apr 2015
Updated at: 0633 UTC 21 Apr 2015
Time0551Z 21/07Z 21/08Z 21/09Z 21/10Z 21/11Z 21/12Z 21/13Z 21/14Z 21/15Z 21/16Z 21/17Z 21/18Z 21/19Z
Type OBS PRVL PRVL PRVL PRVL PRVL PRVL PRVL PRVL PRVL PRVL PRVL PRVL PRVL
VIS 10 >6 >6 >6 >6 >6 >6 >6 >6 >6 >6 >6 >6 >6
CIG -- -- -- -- -- -- -- -- -- 80 80 80 80 80
Cover CLR SCT SCT SCT SCT SCT SCT SCT SCT BKN BKN BKN BKN BKN
FltCat VFR VFR VFR VFR VFR VFR VFR VFR VFR VFR VFR VFR VFR VFR
WX -- -- -- -- -- -- -- -- -- -- -- -- -- --
WDir 230 240 240 240 240 240 240 240 240 270 270 270 270 270
WSpd 9 10 10 10 10 10 10 10 10 18 18 18 18 18
WGst -- -- -- -- -- -- -- -- -- 28 28 28 28 28
R06/24
XWnd -2 -1 -1 -1 -1 -1 -1 -1 -1 8 8 8 8 8
XGst -- -- -- -- -- -- -- -- -- 13 13 13 13 13
HWnd -9 -10 -10 -10 -10 -10 -10 -10 -10 -16 -16 -16 -16 -16
HGst -- -- -- -- -- -- -- -- -- -25 -25 -25 -25 -25
R11/29
XWnd -9 -9 -9 -9 -9 -9 -9 -9 -9 -10 -10 -10 -10 -10
XGst -- -- -- -- -- -- -- -- -- -15 -15 -15 -15 -15
HWnd -3 -5 -5 -5 -5 -5 -5 -5 -5 -15 -15 -15 -15 -15
HGst -- -- -- -- -- -- -- -- -- -24 -24 -24 -24 -24
R12/30
XWnd -9 -9 -9 -9 -9 -9 -9 -9 -9 -10 -10 -10 -10 -10
XGst -- -- -- -- -- -- -- -- -- -15 -15 -15 -15 -15
HWnd -3 -5 -5 -5 -5 -5 -5 -5 -5 -15 -15 -15 -15 -15
HGst -- -- -- -- -- -- -- -- -- -24 -24 -24 -24 -24

NOTE: TEMPO conditions in [brackets]. Keep in mind TEMPO conditions might be better (lower impact) than prevailing conditions.

Raw TAF
KSTL 210520Z 2106/2212 24010KT P6SM SCT100
  FM211500 27018G28KT P6SM BKN080
  FM220100 26007KT P6SM SCT080
  FM220600 33006KT P6SM OVC040


Raw METAR
KSTL 210551Z 23009KT 10SM CLR 09/M02 A2983 RMK AO2 SLP101 T00941017 10133 20094 401440094 56006
KSTL 210451Z 22009KT 10SM CLR 09/M01 A2983 RMK AO2 SLP102 T00941011
KSTL 210351Z 22007KT 10SM CLR 09/M01 A2984 RMK AO2 SLP104 T00941006

METAR Board
Radar Display
Forecast Discussion

TAF Board Legend

Potential Impact
Threat None Slight Moderate High
Visibility (sm) ≥5.1 5.1>X≥3 3>X≥1 <1
Ceiling (100 ft) ≥30.1 30.1>X≥10 10>X≥5 <5
Wind Speed (kt) <10 10≤X<20 20≤X<30 ≥30
Wind Gust (kt) <15 15≤X<25 25≤X<35 ≥35
Weather No Wx Reported VCTS,-TS,-FZRA,SN TS,FZRA +TS,+FZRA,+SN